createdAt,value
2017-11-13T00:00:54.408Z,99803
2017-11-13T00:03:22.579Z,99807
2017-11-13T00:05:51.908Z,99820
2017-11-13T00:08:20.924Z,99819
2017-11-13T00:10:49.269Z,99821
2017-11-13T00:13:18.223Z,99818
2017-11-13T00:15:46.390Z,99821
2017-11-13T00:18:14.528Z,99821
2017-11-13T00:20:43.440Z,99827
2017-11-13T00:23:12.402Z,99828
2017-11-13T00:25:41.334Z,99833
2017-11-13T00:28:09.504Z,99834
2017-11-13T00:30:37.659Z,99833
2017-11-13T00:33:05.811Z,99834
2017-11-13T00:35:34.753Z,99849
2017-11-13T00:38:02.916Z,99853
2017-11-13T00:40:31.085Z,99851
2017-11-13T00:42:59.246Z,99855
2017-11-13T00:45:27.400Z,99851
2017-11-13T00:47:56.336Z,99846
2017-11-13T00:50:24.721Z,99857
2017-11-13T00:52:52.888Z,99856
2017-11-13T00:55:21.051Z,99858
2017-11-13T00:57:49.737Z,99857
2017-11-13T01:00:17.893Z,99859
2017-11-13T01:02:46.068Z,99852
2017-11-13T01:05:14.217Z,99864
2017-11-13T01:07:43.467Z,99853
2017-11-13T01:10:11.620Z,99862
2017-11-13T01:12:39.781Z,99849
2017-11-13T01:15:07.912Z,99864
2017-11-13T01:17:36.082Z,99863
2017-11-13T01:20:04.232Z,99858
2017-11-13T01:22:32.426Z,99867
2017-11-13T01:25:00.577Z,99863
2017-11-13T01:27:29.336Z,99876
2017-11-13T01:29:57.505Z,99869
2017-11-13T01:32:25.705Z,99864
2017-11-13T01:34:53.871Z,99877
2017-11-13T01:37:22.132Z,99873
2017-11-13T01:39:50.300Z,99862
2017-11-13T01:42:18.501Z,99877
2017-11-13T01:44:46.680Z,99887
2017-11-13T01:47:14.856Z,99883
2017-11-13T01:49:43.849Z,99876
2017-11-13T01:52:11.997Z,99886
2017-11-13T01:54:40.202Z,99885
2017-11-13T01:57:08.341Z,99893
2017-11-13T01:59:36.521Z,99897
2017-11-13T02:02:04.664Z,99893
2017-11-13T02:04:32.824Z,99901
2017-11-13T02:07:01.726Z,99906
2017-11-13T02:09:29.873Z,99904
2017-11-13T02:11:58.850Z,99919
2017-11-13T02:14:27.021Z,99918
2017-11-13T02:16:55.173Z,99927
2017-11-13T02:19:23.332Z,99923
2017-11-13T02:21:51.484Z,99924
2017-11-13T02:24:19.632Z,99930
2017-11-13T02:26:48.549Z,99936
2017-11-13T02:29:16.688Z,99927
2017-11-13T02:31:44.860Z,99943
2017-11-13T02:34:13.074Z,99945
2017-11-13T02:36:41.236Z,99952
2017-11-13T02:39:09.373Z,99938
2017-11-13T02:41:37.537Z,99951
2017-11-13T02:44:05.700Z,99952
2017-11-13T02:46:33.853Z,99948
2017-11-13T02:49:02.030Z,99952
2017-11-13T02:51:30.177Z,99957
2017-11-13T02:53:58.349Z,99964
2017-11-13T02:56:27.207Z,99972
2017-11-13T02:58:56.120Z,99972
2017-11-13T03:01:25.342Z,99971
2017-11-13T03:03:53.553Z,99972
2017-11-13T03:06:21.701Z,99971
2017-11-13T03:08:50.092Z,99972
2017-11-13T03:11:18.252Z,99975
2017-11-13T03:13:46.416Z,99982
2017-11-13T03:16:15.297Z,99986
2017-11-13T03:18:43.496Z,99977
2017-11-13T03:21:11.632Z,99990
2017-11-13T03:23:39.787Z,99984
2017-11-13T03:26:08.348Z,99996
2017-11-13T03:28:36.531Z,99991
2017-11-13T03:31:05.481Z,99998
2017-11-13T03:33:33.645Z,100000
2017-11-13T03:36:01.794Z,99997
2017-11-13T03:38:30.010Z,100013
2017-11-13T03:40:58.160Z,100022
2017-11-13T03:43:26.313Z,100027
2017-11-13T03:45:54.475Z,100023
2017-11-13T03:48:22.625Z,100038
2017-11-13T03:50:52.305Z,100024
2017-11-13T03:53:20.451Z,100035
2017-11-13T03:55:48.636Z,100038
2017-11-13T03:58:16.793Z,100050
2017-11-13T04:00:44.965Z,100038
2017-11-13T04:03:13.106Z,100054
2017-11-13T04:05:42.030Z,100061
2017-11-13T04:08:10.168Z,100062
2017-11-13T04:10:39.093Z,100063
2017-11-13T04:13:07.241Z,100068
2017-11-13T04:15:35.405Z,100067
2017-11-13T04:18:04.749Z,100079
2017-11-13T04:20:32.934Z,100073
2017-11-13T04:23:01.098Z,100075
2017-11-13T04:25:29.248Z,100085
2017-11-13T04:27:57.425Z,100085
2017-11-13T04:30:25.583Z,100091
2017-11-13T04:32:53.744Z,100095
2017-11-13T04:35:22.663Z,100104
2017-11-13T04:37:50.837Z,100096
2017-11-13T04:40:18.985Z,100111
2017-11-13T04:42:47.165Z,100111
2017-11-13T04:45:15.314Z,100108
2017-11-13T04:47:44.760Z,100125
2017-11-13T04:50:12.914Z,100132
2017-11-13T04:52:41.092Z,100127
2017-11-13T04:55:09.234Z,100133
2017-11-13T04:57:38.164Z,100136
2017-11-13T05:00:06.383Z,100137
2017-11-13T05:02:34.541Z,100146
2017-11-13T05:05:02.694Z,100147
2017-11-13T05:07:30.844Z,100151
2017-11-13T05:09:59.025Z,100163
2017-11-13T05:12:27.184Z,100167
2017-11-13T05:14:55.342Z,100170
2017-11-13T05:17:24.363Z,100177
2017-11-13T05:19:52.528Z,100181
2017-11-13T05:22:20.685Z,100172
2017-11-13T05:24:48.844Z,100191
2017-11-13T05:27:18.468Z,100187
2017-11-13T05:29:46.676Z,100180
2017-11-13T05:32:15.077Z,100197
2017-11-13T05:34:43.330Z,100200
2017-11-13T05:37:11.482Z,100199
2017-11-13T05:39:39.711Z,100202
2017-11-13T05:42:08.069Z,100191
2017-11-13T05:44:36.242Z,100193
2017-11-13T05:47:04.386Z,100200
2017-11-13T05:49:32.535Z,100203
2017-11-13T05:52:01.473Z,100206
2017-11-13T05:54:29.634Z,100202
2017-11-13T05:56:57.781Z,100210
2017-11-13T05:59:25.939Z,100221
2017-11-13T06:01:54.881Z,100225
2017-11-13T06:04:23.024Z,100222
2017-11-13T06:06:51.179Z,100225
2017-11-13T06:09:20.089Z,100237
2017-11-13T06:11:48.281Z,100238
2017-11-13T06:14:16.429Z,100244
2017-11-13T06:16:44.633Z,100242
2017-11-13T06:19:12.795Z,100249
2017-11-13T06:21:40.959Z,100257
2017-11-13T06:24:09.201Z,100258
2017-11-13T06:26:48.340Z,100258
2017-11-13T06:29:16.542Z,100266
2017-11-13T06:31:44.726Z,100262
2017-11-13T06:34:12.895Z,100276
2017-11-13T06:36:41.078Z,100277
2017-11-13T06:39:09.239Z,100280
2017-11-13T06:41:37.511Z,100288
2017-11-13T06:44:05.666Z,100288
2017-11-13T06:46:33.820Z,100297
2017-11-13T06:49:02.748Z,100287
2017-11-13T06:51:30.897Z,100301
2017-11-13T06:53:59.060Z,100313
2017-11-13T06:56:27.213Z,100308
2017-11-13T06:58:56.145Z,100311
2017-11-13T07:01:24.437Z,100323
2017-11-13T07:03:52.609Z,100314
2017-11-13T07:06:20.760Z,100323
2017-11-13T07:08:48.932Z,100326
2017-11-13T07:11:17.095Z,100335
2017-11-13T07:13:45.761Z,100331
2017-11-13T07:16:13.910Z,100331
2017-11-13T07:18:42.086Z,100335
2017-11-13T07:21:10.350Z,100336
2017-11-13T07:23:38.513Z,100333
2017-11-13T07:26:06.678Z,100338
2017-11-13T07:28:34.860Z,100335
2017-11-13T07:31:03.037Z,100346
2017-11-13T07:33:31.233Z,100348
2017-11-13T07:36:00.173Z,100346
2017-11-13T07:38:28.332Z,100347
2017-11-13T07:40:56.498Z,100362
2017-11-13T07:43:24.639Z,100359
2017-11-13T07:45:52.888Z,100364
2017-11-13T07:48:21.046Z,100365
2017-11-13T07:50:49.223Z,100363
2017-11-13T07:53:17.388Z,100363
2017-11-13T07:55:45.542Z,100362
2017-11-13T07:58:13.684Z,100369
2017-11-13T08:00:41.872Z,100367
2017-11-13T08:03:10.883Z,100374
2017-11-13T08:05:39.035Z,100368
2017-11-13T08:08:07.234Z,100374
2017-11-13T08:10:35.408Z,100372
2017-11-13T08:13:04.514Z,100376
2017-11-13T08:15:33.291Z,100366
2017-11-13T08:18:01.441Z,100376
2017-11-13T08:20:29.668Z,100389
2017-11-13T08:22:57.979Z,100395
2017-11-13T08:38:41.573Z,100441
2017-11-13T08:41:09.720Z,100444
2017-11-13T08:43:37.896Z,100457
2017-11-13T08:46:06.057Z,100450
2017-11-13T08:48:34.282Z,100446
2017-11-13T08:51:02.520Z,100450
2017-11-13T08:53:30.697Z,100453
2017-11-13T08:55:58.840Z,100451
2017-11-13T08:58:27.003Z,100462
2017-11-13T09:00:55.157Z,100455
2017-11-13T09:03:23.323Z,100464
2017-11-13T09:05:52.255Z,100476
2017-11-13T09:08:20.430Z,100479
2017-11-13T09:10:49.245Z,100479
2017-11-13T09:13:17.456Z,100488
2017-11-13T09:15:46.422Z,100494
2017-11-13T09:18:14.586Z,100492
2017-11-13T09:20:42.745Z,100491
2017-11-13T09:23:10.903Z,100499
2017-11-13T09:25:39.179Z,100494
2017-11-13T09:28:07.332Z,100512
2017-11-13T09:30:35.491Z,100516
2017-11-13T09:33:03.652Z,100520
2017-11-13T09:35:32.689Z,100538
2017-11-13T09:38:00.874Z,100534
2017-11-13T09:40:29.040Z,100541
2017-11-13T09:42:57.179Z,100548
2017-11-13T09:45:25.347Z,100551
2017-11-13T09:47:53.497Z,100562
2017-11-13T09:50:22.442Z,100561
2017-11-13T09:52:50.592Z,100561
2017-11-13T09:55:18.740Z,100551
2017-11-13T09:57:47.684Z,100551
2017-11-13T10:00:21.704Z,100559
2017-11-13T10:02:49.876Z,100551
2017-11-13T10:05:18.033Z,100562
2017-11-13T10:07:46.203Z,100561
2017-11-13T10:10:14.384Z,100566
2017-11-13T10:12:42.551Z,100571
2017-11-13T10:15:10.716Z,100569
2017-11-13T10:17:38.879Z,100571
2017-11-13T10:20:07.036Z,100572
2017-11-13T10:22:35.217Z,100579
2017-11-13T10:25:03.368Z,100579
2017-11-13T10:27:32.291Z,100592
2017-11-13T10:30:00.435Z,100588
2017-11-13T10:32:29.365Z,100593
2017-11-13T10:34:57.544Z,100593
2017-11-13T10:37:25.714Z,100589
2017-11-13T10:39:53.871Z,100591
2017-11-13T10:42:22.057Z,100594
2017-11-13T10:44:51.143Z,100601
2017-11-13T10:47:19.358Z,100603
2017-11-13T10:49:47.503Z,100601
2017-11-13T10:52:15.677Z,100607
2017-11-13T10:54:43.856Z,100609
2017-11-13T10:57:12.031Z,100620
2017-11-13T10:59:40.196Z,100625
2017-11-13T11:02:08.344Z,100625
2017-11-13T11:04:36.519Z,100630
2017-11-13T11:07:04.671Z,100641
2017-11-13T11:09:33.606Z,100633
2017-11-13T11:12:01.747Z,100655
2017-11-13T11:14:30.634Z,100650
2017-11-13T11:17:00.126Z,100656
2017-11-13T11:19:31.411Z,100658
2017-11-13T11:21:59.579Z,100647
2017-11-13T11:24:27.743Z,100647
2017-11-13T11:26:55.899Z,100640
2017-11-13T11:29:29.608Z,100644
2017-11-13T11:32:00.221Z,100646
2017-11-13T11:34:31.527Z,100640
2017-11-13T11:40:06.718Z,100641
2017-11-13T11:42:35.645Z,100637
2017-11-13T11:45:09.485Z,100642
2017-11-13T11:47:37.632Z,100648
2017-11-13T11:50:05.809Z,100644
2017-11-13T11:52:33.998Z,100653
2017-11-13T11:55:08.570Z,100655
2017-11-13T11:57:36.719Z,100663
2017-11-13T12:00:05.692Z,100672
2017-11-13T12:02:33.840Z,100674
2017-11-13T12:05:01.996Z,100668
2017-11-13T12:07:30.187Z,100672
2017-11-13T12:09:58.346Z,100669
2017-11-13T12:12:26.505Z,100666
2017-11-13T12:14:54.639Z,100661
2017-11-13T12:17:22.803Z,100670
2017-11-13T12:19:50.940Z,100662
2017-11-13T12:22:19.124Z,100668
2017-11-13T12:24:47.273Z,100666
2017-11-13T12:27:15.446Z,100668
2017-11-13T12:29:43.651Z,100663
2017-11-13T12:32:11.826Z,100670
2017-11-13T12:34:40.005Z,100671
2017-11-13T12:37:08.171Z,100672
2017-11-13T12:39:36.329Z,100671
2017-11-13T12:42:04.488Z,100682
2017-11-13T12:44:32.628Z,100688
2017-11-13T12:47:01.564Z,100686
2017-11-13T12:49:29.757Z,100684
2017-11-13T12:51:57.936Z,100698
2017-11-13T12:54:26.100Z,100700
2017-11-13T12:56:54.249Z,100711
2017-11-13T12:59:22.422Z,100716
2017-11-13T13:01:50.576Z,100714
2017-11-13T13:04:18.753Z,100722
2017-11-13T13:06:47.026Z,100721
2017-11-13T13:09:15.208Z,100729
2017-11-13T13:11:43.357Z,100723
2017-11-13T13:14:11.537Z,100730
2017-11-13T13:16:39.717Z,100737
2017-11-13T13:19:07.884Z,100741
2017-11-13T13:21:36.113Z,100745
2017-11-13T13:24:04.279Z,100749
2017-11-13T13:26:32.457Z,100745
2017-11-13T13:29:00.932Z,100753
2017-11-13T13:31:29.132Z,100754
2017-11-13T13:33:58.985Z,100759
2017-11-13T13:36:27.387Z,100759
2017-11-13T13:38:56.236Z,100762
2017-11-13T13:41:24.429Z,100757
2017-11-13T13:43:52.659Z,100761
2017-11-13T13:46:20.822Z,100759
2017-11-13T13:48:48.980Z,100758
2017-11-13T13:51:17.169Z,100755
2017-11-13T13:53:45.411Z,100757
2017-11-13T13:56:13.659Z,100751
2017-11-13T13:58:41.803Z,100761
2017-11-13T14:01:10.864Z,100771
2017-11-13T14:03:39.073Z,100766
2017-11-13T14:06:07.996Z,100769
2017-11-13T14:08:36.164Z,100773
2017-11-13T14:11:04.310Z,100777
2017-11-13T14:13:32.529Z,100790
2017-11-13T14:16:00.679Z,100787
2017-11-13T14:18:28.900Z,100787
2017-11-13T14:20:57.068Z,100791
2017-11-13T14:23:25.235Z,100802
2017-11-13T14:25:53.376Z,100801
2017-11-13T14:28:21.553Z,100794
2017-11-13T14:30:50.092Z,100794
2017-11-13T14:33:19.218Z,100807
2017-11-13T14:35:47.476Z,100815
2017-11-13T14:38:16.643Z,100811
2017-11-13T14:40:44.791Z,100804
2017-11-13T14:43:12.962Z,100805
2017-11-13T14:45:41.107Z,100813
2017-11-13T14:48:09.267Z,100806
2017-11-13T14:50:38.203Z,100806
2017-11-13T14:53:06.402Z,100808
2017-11-13T14:55:34.565Z,100817
2017-11-13T14:58:02.821Z,100820
2017-11-13T15:00:30.993Z,100823
2017-11-13T15:02:59.159Z,100826
2017-11-13T15:05:27.335Z,100835
2017-11-13T15:07:55.479Z,100835
2017-11-13T15:10:23.665Z,100846
2017-11-13T15:12:51.813Z,100831
2017-11-13T15:15:20.338Z,100844
2017-11-13T15:17:48.478Z,100851
2017-11-13T15:20:16.652Z,100850
2017-11-13T15:22:44.823Z,100857
2017-11-13T15:25:13.019Z,100848
2017-11-13T15:27:41.240Z,100862
2017-11-13T15:30:09.416Z,100865
2017-11-13T15:32:38.334Z,100869
2017-11-13T15:35:06.505Z,100869
2017-11-13T15:37:34.657Z,100882
2017-11-13T15:40:03.577Z,100880
2017-11-13T15:42:31.714Z,100887
2017-11-13T15:45:00.667Z,100884
2017-11-13T15:47:28.814Z,100894
2017-11-13T15:49:56.961Z,100887
2017-11-13T15:52:25.900Z,100899
2017-11-13T15:54:54.066Z,100902
2017-11-13T15:57:22.237Z,100906
2017-11-13T15:59:50.415Z,100891
2017-11-13T16:02:18.577Z,100910
2017-11-13T16:04:46.718Z,100908
2017-11-13T16:07:15.640Z,100912
2017-11-13T16:09:43.785Z,100909
2017-11-13T16:12:12.714Z,100913
2017-11-13T16:14:40.856Z,100908
2017-11-13T16:17:09.022Z,100918
2017-11-13T16:19:37.942Z,100914
2017-11-13T16:22:06.220Z,100921
2017-11-13T16:24:34.375Z,100927
2017-11-13T16:27:02.536Z,100939
2017-11-13T16:29:30.683Z,100941
2017-11-13T16:31:59.255Z,100936
2017-11-13T16:34:27.414Z,100957
2017-11-13T16:36:55.574Z,100949
2017-11-13T16:39:23.721Z,100961
2017-11-13T16:41:51.880Z,100957
2017-11-13T16:44:20.024Z,100970
2017-11-13T16:46:48.171Z,100966
2017-11-13T16:49:16.313Z,100965
2017-11-13T16:51:44.515Z,100973
2017-11-13T16:54:12.915Z,100976
2017-11-13T16:56:41.159Z,100984
2017-11-13T16:59:09.341Z,100987
2017-11-13T17:01:37.549Z,100995
2017-11-13T17:04:05.751Z,100995
2017-11-13T17:06:33.899Z,100996
2017-11-13T17:09:02.870Z,101002
2017-11-13T17:11:31.025Z,101005
2017-11-13T17:13:59.172Z,101015
2017-11-13T17:16:27.330Z,101013
2017-11-13T17:18:55.519Z,101015
2017-11-13T17:21:23.660Z,101016
2017-11-13T17:23:52.586Z,101015
2017-11-13T17:26:20.767Z,101014
2017-11-13T17:28:48.936Z,101014
2017-11-13T17:31:17.078Z,101030
2017-11-13T17:33:45.246Z,101027
2017-11-13T17:36:14.158Z,101024
2017-11-13T17:38:42.321Z,101033
2017-11-13T17:41:10.472Z,101036
2017-11-13T17:43:38.638Z,101042
2017-11-13T17:46:07.583Z,101041
2017-11-13T17:48:35.764Z,101053
2017-11-13T17:51:04.040Z,101049
2017-11-13T17:53:32.953Z,101049
2017-11-13T17:56:01.129Z,101070
2017-11-13T17:58:29.267Z,101059
2017-11-13T18:00:57.420Z,101067
2017-11-13T18:03:25.564Z,101078
2017-11-13T18:05:54.508Z,101078
2017-11-13T18:08:22.751Z,101091
2017-11-13T18:10:50.926Z,101083
2017-11-13T18:13:19.094Z,101090
2017-11-13T18:15:47.232Z,101094
2017-11-13T18:18:15.422Z,101099
2017-11-13T18:20:44.324Z,101107
2017-11-13T18:23:13.250Z,101104
2017-11-13T18:25:41.417Z,101107
2017-11-13T18:28:09.589Z,101113
2017-11-13T18:30:37.732Z,101118
2017-11-13T18:33:06.776Z,101117
2017-11-13T18:35:34.923Z,101124
2017-11-13T18:38:03.082Z,101115
2017-11-13T18:40:31.224Z,101127
2017-11-13T18:42:59.383Z,101123
2017-11-13T18:45:27.540Z,101132
2017-11-13T18:47:55.687Z,101134
2017-11-13T18:50:23.859Z,101149
2017-11-13T18:52:51.996Z,101152
2017-11-13T18:55:20.908Z,101158
2017-11-13T18:57:49.061Z,101160
2017-11-13T19:00:17.979Z,101162
2017-11-13T19:02:46.121Z,101166
2017-11-13T19:05:15.044Z,101167
2017-11-13T19:07:43.185Z,101170
2017-11-13T19:10:12.102Z,101177
2017-11-13T19:12:40.302Z,101184
2017-11-13T19:15:08.475Z,101189
2017-11-13T19:17:36.643Z,101194
2017-11-13T19:20:04.792Z,101193
2017-11-13T19:22:32.988Z,101198
2017-11-13T19:25:01.887Z,101202
2017-11-13T19:27:30.016Z,101205
2017-11-13T19:29:58.462Z,101205
2017-11-13T19:32:26.624Z,101210
2017-11-13T19:34:54.780Z,101208
2017-11-13T19:37:22.939Z,101220
2017-11-13T19:39:52.032Z,101210
2017-11-13T19:42:20.744Z,101209
2017-11-13T19:44:48.910Z,101212
2017-11-13T19:47:17.231Z,101206
2017-11-13T19:49:46.168Z,101214
2017-11-13T19:52:14.332Z,101206
2017-11-13T19:54:42.464Z,101204
2017-11-13T19:57:11.390Z,101208
2017-11-13T19:59:39.548Z,101207
2017-11-13T20:02:07.722Z,101220
2017-11-13T20:04:35.901Z,101225
2017-11-13T20:07:04.099Z,101216
2017-11-13T20:09:32.252Z,101225
2017-11-13T20:12:00.402Z,101230
2017-11-13T20:14:28.951Z,101226
2017-11-13T20:16:57.095Z,101234
2017-11-13T20:19:25.262Z,101240
2017-11-13T20:21:53.399Z,101249
2017-11-13T20:24:21.571Z,101242
2017-11-13T20:26:49.720Z,101240
2017-11-13T20:29:18.650Z,101241
2017-11-13T20:31:46.800Z,101254
2017-11-13T20:34:15.712Z,101256
2017-11-13T20:36:43.870Z,101261
2017-11-13T20:39:12.024Z,101261
2017-11-13T20:41:40.944Z,101266
2017-11-13T20:44:09.120Z,101260
2017-11-13T20:46:37.311Z,101247
2017-11-13T20:49:06.388Z,101265
2017-11-13T20:51:34.551Z,101256
2017-11-13T20:54:02.708Z,101271
2017-11-13T20:56:31.632Z,101266
2017-11-13T20:58:59.776Z,101271
2017-11-13T21:01:28.707Z,101267
2017-11-13T21:03:56.855Z,101277
2017-11-13T21:06:25.016Z,101278
2017-11-13T21:08:53.158Z,101280
2017-11-13T21:11:21.310Z,101278
2017-11-13T21:13:49.456Z,101284
2017-11-13T21:16:17.611Z,101287
2017-11-13T21:18:45.748Z,101284
2017-11-13T21:21:13.912Z,101289
2017-11-13T21:23:42.044Z,101298
2017-11-13T21:26:10.187Z,101282
2017-11-13T21:28:39.630Z,101299
2017-11-13T21:31:07.797Z,101298
2017-11-13T21:33:35.944Z,101305
2017-11-13T21:36:04.097Z,101306
2017-11-13T21:38:33.009Z,101309
2017-11-13T21:41:01.178Z,101308
2017-11-13T21:43:29.324Z,101307
2017-11-13T21:45:57.539Z,101316
2017-11-13T21:48:25.680Z,101308
2017-11-13T21:50:54.601Z,101312
2017-11-13T21:53:22.771Z,101302
2017-11-13T21:55:50.916Z,101302
2017-11-13T21:58:19.845Z,101307
2017-11-13T22:00:47.997Z,101312
2017-11-13T22:03:16.158Z,101317
2017-11-13T22:05:45.094Z,101316
2017-11-13T22:08:13.258Z,101334
2017-11-13T22:10:41.456Z,101340
2017-11-13T22:13:09.603Z,101323
2017-11-13T22:15:37.739Z,101339
2017-11-13T22:18:06.668Z,101340
2017-11-13T22:20:34.802Z,101342
2017-11-13T22:23:04.240Z,101343
2017-11-13T22:25:32.378Z,101331
2017-11-13T22:28:01.297Z,101338
2017-11-13T22:30:29.465Z,101337
2017-11-13T22:32:57.613Z,101333
2017-11-13T22:35:26.537Z,101329
2017-11-13T22:37:54.683Z,101320
2017-11-13T22:40:22.848Z,101323
2017-11-13T22:42:50.995Z,101334
2017-11-13T22:45:19.157Z,101336
2017-11-13T22:47:47.296Z,101332
2017-11-13T22:50:15.496Z,101329
2017-11-13T22:52:43.647Z,101340
2017-11-13T22:55:11.800Z,101340
2017-11-13T22:57:39.941Z,101341
2017-11-13T23:00:08.117Z,101346
2017-11-13T23:02:37.030Z,101352
2017-11-13T23:05:05.201Z,101359
2017-11-13T23:07:33.343Z,101351
2017-11-13T23:10:01.482Z,101351
2017-11-13T23:12:29.650Z,101357
2017-11-13T23:14:57.792Z,101352
2017-11-13T23:17:25.958Z,101350
2017-11-13T23:19:55.374Z,101343
2017-11-13T23:22:23.887Z,101345
2017-11-13T23:24:52.377Z,101347
2017-11-13T23:27:20.524Z,101356
2017-11-13T23:29:48.669Z,101336
2017-11-13T23:32:16.823Z,101347
2017-11-13T23:34:45.722Z,101347
2017-11-13T23:37:14.641Z,101349
2017-11-13T23:39:43.194Z,101352
2017-11-13T23:42:12.111Z,101349
2017-11-13T23:44:40.248Z,101356
2017-11-13T23:47:09.170Z,101351
2017-11-13T23:49:37.319Z,101366
2017-11-13T23:52:06.252Z,101371
2017-11-13T23:54:37.185Z,101374
2017-11-13T23:57:05.341Z,101387
2017-11-13T23:59:33.494Z,101383
